Terminal Aerodrome Forecast
Issued by NWS

Home | Current Version | Previous Version | Text Only | Print | Product List | Glossary On
Versions: 1 2 3 4 5 6 7 8 9 10 11 12 13 14
000
FTUS45 KABQ 050500
TAFFMN
TAF
KFMN 050532Z 0506/0606 29009KT P6SM SKC
     FM051000 08005KT P6SM SKC
     FM051700 12005KT P6SM SKC
     FM052000 28009KT P6SM SKC
     FM060300 VRB03KT P6SM SKC=

USA.gov is the U.S. government's official web portal to all federal, state and local government web resources and services.